createdAt,value
2018-05-04T00:01:48.733Z,6.57
2018-05-04T00:04:17.349Z,6.40
2018-05-04T00:06:45.817Z,5.77
2018-05-04T00:09:14.327Z,6.10
2018-05-04T00:11:42.888Z,5.00
2018-05-04T00:14:11.367Z,5.00
2018-05-04T00:16:39.848Z,5.07
2018-05-04T00:19:08.459Z,5.23
2018-05-04T00:21:36.972Z,5.57
2018-05-04T00:24:06.734Z,5.57
2018-05-04T00:26:35.509Z,5.63
2018-05-04T00:29:06.992Z,6.03
2018-05-04T00:31:35.686Z,5.73
2018-05-04T00:34:04.376Z,5.13
2018-05-04T00:36:33.492Z,5.33
2018-05-04T00:39:02.614Z,5.17
2018-05-04T00:41:31.162Z,5.60
2018-05-04T00:43:59.675Z,6.43
2018-05-04T00:46:28.227Z,6.23
2018-05-04T00:48:56.890Z,6.30
2018-05-04T00:51:25.480Z,6.47
2018-05-04T00:54:06.112Z,6.60
2018-05-04T00:56:34.800Z,7.00
2018-05-04T00:59:03.493Z,6.40
2018-05-04T01:01:32.187Z,6.27
2018-05-04T01:04:01.346Z,6.30
2018-05-04T01:06:30.439Z,5.90
2018-05-04T01:08:59.460Z,5.80
2018-05-04T01:11:28.230Z,6.60
2018-05-04T01:13:56.896Z,5.77
2018-05-04T01:16:25.595Z,5.43
2018-05-04T01:18:54.980Z,6.00
2018-05-04T01:21:24.191Z,5.50
2018-05-04T01:23:53.292Z,4.97
2018-05-04T01:26:21.814Z,5.83
2018-05-04T01:28:50.334Z,5.27
2018-05-04T01:31:19.611Z,5.13
2018-05-04T01:33:48.216Z,5.40
2018-05-04T01:36:16.719Z,5.60
2018-05-04T01:38:45.241Z,5.37
2018-05-04T01:41:13.767Z,5.50
2018-05-04T01:43:43.603Z,5.93
2018-05-04T01:46:12.203Z,5.83
2018-05-04T01:48:40.704Z,5.73
2018-05-04T01:51:09.202Z,5.63
2018-05-04T01:53:37.692Z,5.83
2018-05-04T01:56:06.206Z,5.77
2018-05-04T01:58:35.300Z,5.70
2018-05-04T02:01:03.854Z,5.60
2018-05-04T02:03:32.437Z,5.77
2018-05-04T02:06:00.943Z,5.40
2018-05-04T02:08:29.455Z,5.90
2018-05-04T02:10:57.954Z,5.53
2018-05-04T02:13:26.563Z,5.13
2018-05-04T02:15:55.063Z,5.30
2018-05-04T02:18:23.968Z,5.77
2018-05-04T02:20:53.065Z,5.70
2018-05-04T02:23:21.744Z,6.10
2018-05-04T02:25:50.842Z,5.40
2018-05-04T02:28:19.401Z,6.17
2018-05-04T02:30:47.898Z,5.53
2018-05-04T02:33:16.538Z,5.70
2018-05-04T02:35:45.476Z,5.43
2018-05-04T02:38:14.192Z,5.33
2018-05-04T02:40:43.365Z,4.77
2018-05-04T02:43:12.375Z,5.30
2018-05-04T02:45:41.050Z,5.10
2018-05-04T02:48:09.879Z,5.77
2018-05-04T02:50:38.851Z,4.90
2018-05-04T02:53:07.614Z,5.60
2018-05-04T02:55:36.664Z,4.87
2018-05-04T02:58:05.339Z,5.03
2018-05-04T03:00:33.865Z,5.40
2018-05-04T03:03:02.377Z,5.47
2018-05-04T03:05:30.876Z,5.20
2018-05-04T03:07:59.381Z,5.33
2018-05-04T03:10:27.869Z,5.70
2018-05-04T03:12:57.302Z,5.23
2018-05-04T03:15:25.802Z,5.33
2018-05-04T03:17:54.328Z,5.43
2018-05-04T03:20:22.855Z,5.30
2018-05-04T03:22:51.355Z,5.17
2018-05-04T03:25:19.840Z,5.50
2018-05-04T03:27:48.341Z,5.57
2018-05-04T03:30:17.081Z,6.57
2018-05-04T03:32:45.574Z,15.83
2018-05-04T03:35:14.082Z,6.03
2018-05-04T03:37:43.142Z,5.53
2018-05-04T03:40:11.670Z,5.63
2018-05-04T03:42:41.061Z,5.50
2018-05-04T03:45:09.673Z,5.77
2018-05-04T03:47:38.273Z,5.43
2018-05-04T03:50:06.817Z,5.33
2018-05-04T03:52:35.317Z,5.30
2018-05-04T03:55:04.754Z,5.47
2018-05-04T03:57:44.961Z,5.37
2018-05-04T04:00:25.106Z,5.60
2018-05-04T04:03:05.531Z,4.97
2018-05-04T04:05:34.167Z,5.10
2018-05-04T04:08:02.696Z,5.60
2018-05-04T04:10:31.207Z,4.97
2018-05-04T04:12:59.731Z,4.20
2018-05-04T04:15:28.214Z,4.63
2018-05-04T04:17:56.778Z,5.13
2018-05-04T04:20:25.397Z,4.60
2018-05-04T04:22:53.925Z,4.60
2018-05-04T04:25:22.437Z,4.53
2018-05-04T04:27:50.925Z,4.90
2018-05-04T04:30:19.414Z,4.47
2018-05-04T04:32:48.766Z,4.30
2018-05-04T04:35:17.237Z,4.13
2018-05-04T04:37:45.725Z,4.30
2018-05-04T04:40:14.277Z,4.57
2018-05-04T04:42:42.771Z,4.30
2018-05-04T04:45:11.332Z,3.80
2018-05-04T04:47:39.840Z,4.00
2018-05-04T04:50:08.344Z,3.80
2018-05-04T04:52:36.851Z,3.47
2018-05-04T04:55:05.463Z,3.10
2018-05-04T04:57:34.724Z,3.23
2018-05-04T05:00:03.330Z,3.20
2018-05-04T05:02:31.943Z,3.20
2018-05-04T05:05:00.510Z,3.10
2018-05-04T05:07:29.014Z,3.07
2018-05-04T05:09:57.543Z,3.20
2018-05-04T05:12:26.079Z,3.30
2018-05-04T05:14:54.599Z,3.00
2018-05-04T05:17:23.143Z,3.10
2018-05-04T05:19:51.659Z,3.10
2018-05-04T05:22:20.633Z,3.10
2018-05-04T05:24:49.375Z,3.07
2018-05-04T05:27:18.314Z,3.53
2018-05-04T05:29:47.059Z,2.93
2018-05-04T05:32:15.853Z,2.93
2018-05-04T05:34:44.866Z,3.30
2018-05-04T05:37:14.332Z,3.03
2018-05-04T05:39:43.052Z,2.70
2018-05-04T05:42:12.145Z,3.23
2018-05-04T05:44:41.237Z,2.87
2018-05-04T05:47:09.952Z,2.90
2018-05-04T05:49:39.113Z,3.00
2018-05-04T05:52:08.207Z,2.70
2018-05-04T05:54:37.363Z,3.30
2018-05-04T05:57:06.878Z,3.13
2018-05-04T05:59:37.146Z,3.30
2018-05-04T06:02:06.080Z,3.47
2018-05-04T06:04:35.280Z,3.20
2018-05-04T06:07:04.211Z,3.13
2018-05-04T06:09:33.103Z,2.80
2018-05-04T06:12:02.739Z,3.10
2018-05-04T06:14:33.215Z,3.20
2018-05-04T06:17:02.184Z,3.10
2018-05-04T06:19:31.046Z,3.10
2018-05-04T06:21:59.615Z,3.57
2018-05-04T06:24:28.435Z,3.40
2018-05-04T06:26:57.472Z,3.47
2018-05-04T06:29:26.189Z,3.10
2018-05-04T06:31:55.235Z,3.00
2018-05-04T06:34:23.949Z,2.83
2018-05-04T06:36:52.665Z,3.10
2018-05-04T06:39:21.332Z,3.23
2018-05-04T06:41:50.524Z,2.70
2018-05-04T06:44:19.466Z,2.73
2018-05-04T06:46:48.209Z,3.37
2018-05-04T06:49:16.882Z,3.20
2018-05-04T06:51:45.678Z,3.00
2018-05-04T06:54:14.691Z,2.60
2018-05-04T06:56:43.868Z,3.20
2018-05-04T06:59:12.963Z,3.10
2018-05-04T07:01:41.910Z,3.00
2018-05-04T07:04:10.606Z,3.37
2018-05-04T07:06:39.840Z,2.80
2018-05-04T07:09:08.866Z,3.10
2018-05-04T07:11:38.027Z,2.93
2018-05-04T07:14:07.124Z,2.60
2018-05-04T07:16:36.137Z,2.77
2018-05-04T07:19:04.807Z,2.63
2018-05-04T07:21:33.474Z,2.70
2018-05-04T07:24:03.361Z,2.63
2018-05-04T07:26:32.582Z,2.67
2018-05-04T07:29:01.257Z,3.60
2018-05-04T07:31:30.292Z,2.87
2018-05-04T07:33:58.982Z,3.00
2018-05-04T07:36:28.167Z,2.57
2018-05-04T07:38:57.259Z,2.50
2018-05-04T07:41:27.185Z,2.47
2018-05-04T07:43:57.002Z,2.30
2018-05-04T07:46:26.093Z,2.60
2018-05-04T07:48:55.881Z,2.80
2018-05-04T07:51:25.902Z,3.00
2018-05-04T07:53:55.249Z,2.67
2018-05-04T07:56:35.565Z,2.73
2018-05-04T07:59:04.680Z,2.87
2018-05-04T08:01:33.818Z,2.40
2018-05-04T08:04:02.810Z,2.10
2018-05-04T08:06:31.576Z,2.40
2018-05-04T08:09:00.778Z,2.40
2018-05-04T08:11:29.761Z,2.53
2018-05-04T08:13:58.926Z,2.60
2018-05-04T08:16:29.171Z,2.60
2018-05-04T08:18:58.345Z,2.60
2018-05-04T08:21:27.777Z,2.80
2018-05-04T08:23:56.472Z,2.60
2018-05-04T08:26:25.167Z,2.10
2018-05-04T08:28:54.320Z,2.30
2018-05-04T08:31:23.022Z,2.00
2018-05-04T08:33:52.922Z,2.40
2018-05-04T08:36:22.431Z,2.40
2018-05-04T08:38:51.111Z,2.70
2018-05-04T08:41:20.016Z,2.40
2018-05-04T08:43:48.730Z,2.40
2018-05-04T08:46:17.369Z,2.50
2018-05-04T08:48:46.093Z,2.30
2018-05-04T08:51:15.026Z,2.50
2018-05-04T08:53:44.057Z,2.20
2018-05-04T08:56:13.083Z,2.30
2018-05-04T08:58:42.237Z,2.60
2018-05-04T09:01:11.180Z,2.50
2018-05-04T09:03:39.920Z,2.10
2018-05-04T09:06:11.619Z,2.30
2018-05-04T09:08:40.343Z,2.40
2018-05-04T09:11:09.541Z,2.20
2018-05-04T09:13:38.147Z,2.10
2018-05-04T09:16:06.751Z,2.10
2018-05-04T09:18:35.298Z,2.40
2018-05-04T09:21:03.812Z,2.30
2018-05-04T09:23:32.337Z,2.10
2018-05-04T09:26:00.913Z,2.33
2018-05-04T09:28:29.463Z,2.07
2018-05-04T09:30:58.116Z,2.10
2018-05-04T09:33:26.825Z,2.00
2018-05-04T09:35:55.323Z,2.20
2018-05-04T09:38:23.843Z,2.30
2018-05-04T09:40:53.732Z,2.27
2018-05-04T09:43:22.635Z,2.30
2018-05-04T09:45:52.176Z,2.07
2018-05-04T09:48:21.124Z,2.30
2018-05-04T09:50:49.815Z,2.10
2018-05-04T09:53:19.056Z,2.00
2018-05-04T09:55:48.077Z,2.30
2018-05-04T09:58:17.191Z,2.20
2018-05-04T10:00:46.337Z,2.30
2018-05-04T10:03:14.932Z,2.30
2018-05-04T10:05:43.619Z,2.10
2018-05-04T10:08:12.293Z,2.00
2018-05-04T10:10:41.081Z,2.10
2018-05-04T10:13:10.068Z,2.20
2018-05-04T10:15:38.864Z,2.30
2018-05-04T10:18:07.550Z,2.03
2018-05-04T10:20:36.572Z,2.10
2018-05-04T10:23:05.742Z,2.10
2018-05-04T10:25:34.753Z,2.30
2018-05-04T10:28:03.421Z,2.00
2018-05-04T10:30:32.939Z,2.20
2018-05-04T10:33:01.630Z,2.50
2018-05-04T10:35:30.808Z,2.47
2018-05-04T10:37:59.902Z,2.20
2018-05-04T10:40:29.332Z,2.20
2018-05-04T10:42:58.501Z,2.30
2018-05-04T10:45:27.990Z,2.20
2018-05-04T10:47:56.680Z,2.20
2018-05-04T10:50:25.724Z,2.40
2018-05-04T10:52:54.885Z,2.73
2018-05-04T10:55:23.981Z,2.30
2018-05-04T10:57:53.004Z,2.23
2018-05-04T11:00:22.140Z,2.20
2018-05-04T11:02:51.185Z,2.43
2018-05-04T11:05:20.406Z,2.50
2018-05-04T11:07:48.896Z,2.40
2018-05-04T11:10:17.637Z,2.17
2018-05-04T11:12:46.826Z,2.40
2018-05-04T11:15:15.923Z,2.20
2018-05-04T11:17:44.984Z,2.10
2018-05-04T11:20:13.953Z,2.10
2018-05-04T11:22:42.797Z,2.20
2018-05-04T11:25:11.762Z,2.30
2018-05-04T11:27:40.903Z,2.50
2018-05-04T11:30:09.597Z,2.37
2018-05-04T11:32:38.772Z,1.93
2018-05-04T11:35:07.279Z,2.10
2018-05-04T11:37:36.046Z,2.03
2018-05-04T11:40:05.647Z,2.27
2018-05-04T11:42:34.745Z,2.07
2018-05-04T11:45:03.263Z,2.13
2018-05-04T11:47:32.115Z,1.90
2018-05-04T11:50:01.059Z,2.10
2018-05-04T11:52:29.775Z,1.90
2018-05-04T11:54:58.489Z,1.90
2018-05-04T11:57:27.261Z,2.07
2018-05-04T11:59:57.216Z,2.03
2018-05-04T12:02:26.131Z,1.80
2018-05-04T12:04:54.925Z,1.90
2018-05-04T12:07:24.057Z,1.90
2018-05-04T12:09:53.119Z,1.80
2018-05-04T12:12:22.040Z,1.90
2018-05-04T12:14:50.832Z,1.90
2018-05-04T12:17:20.028Z,1.80
2018-05-04T12:19:48.961Z,1.70
2018-05-04T12:22:18.629Z,1.80
2018-05-04T12:24:47.622Z,1.80
2018-05-04T12:27:16.818Z,1.70
2018-05-04T12:29:45.832Z,1.90
2018-05-04T12:32:15.224Z,1.83
2018-05-04T12:34:44.102Z,1.77
2018-05-04T12:37:12.868Z,1.83
2018-05-04T12:39:41.777Z,1.60
2018-05-04T12:42:10.466Z,1.90
2018-05-04T12:44:39.982Z,1.67
2018-05-04T12:47:08.698Z,1.70
2018-05-04T12:49:37.717Z,1.80
2018-05-04T12:52:06.432Z,1.80
2018-05-04T12:54:35.227Z,1.60
2018-05-04T12:57:04.327Z,1.60
2018-05-04T12:59:33.423Z,1.70
2018-05-04T13:02:02.510Z,1.50
2018-05-04T13:04:31.579Z,1.60
2018-05-04T13:07:00.689Z,1.50
2018-05-04T13:09:29.798Z,1.60
2018-05-04T13:11:58.278Z,1.50
2018-05-04T13:14:27.374Z,1.57
2018-05-04T13:16:55.895Z,1.50
2018-05-04T13:19:24.872Z,1.40
2018-05-04T13:21:53.488Z,1.50
2018-05-04T13:24:21.975Z,1.60
2018-05-04T13:26:50.582Z,1.47
2018-05-04T13:29:19.062Z,1.40
2018-05-04T13:31:47.560Z,1.57
2018-05-04T13:34:16.060Z,1.50
2018-05-04T13:36:44.586Z,1.60
2018-05-04T13:39:13.210Z,2.00
2018-05-04T13:41:41.725Z,1.57
2018-05-04T13:44:11.016Z,1.57
2018-05-04T13:46:41.763Z,1.80
2018-05-04T13:49:10.729Z,1.47
2018-05-04T13:51:40.039Z,1.90
2018-05-04T13:54:08.391Z,1.50
2018-05-04T13:56:37.288Z,1.30
2018-05-04T13:59:05.803Z,1.30
2018-05-04T14:01:34.364Z,1.30
2018-05-04T14:04:03.154Z,1.20
2018-05-04T14:06:32.438Z,1.50
2018-05-04T14:09:01.464Z,1.53
2018-05-04T14:11:30.481Z,1.30
2018-05-04T14:13:59.223Z,1.40
2018-05-04T14:16:27.893Z,1.20
2018-05-04T14:18:57.504Z,1.20
2018-05-04T14:21:26.599Z,1.27
2018-05-04T14:23:55.114Z,1.27
2018-05-04T14:26:23.638Z,1.30
2018-05-04T14:28:52.225Z,1.40
2018-05-04T14:31:20.932Z,1.37
2018-05-04T14:33:49.472Z,1.40
2018-05-04T14:36:18.139Z,1.20
2018-05-04T14:38:46.627Z,1.47
2018-05-04T14:41:15.149Z,1.20
2018-05-04T14:43:44.453Z,1.10
2018-05-04T14:46:12.983Z,1.30
2018-05-04T14:48:41.510Z,1.23
2018-05-04T14:51:10.111Z,1.30
2018-05-04T14:53:38.618Z,1.30
2018-05-04T14:56:07.171Z,1.03
2018-05-04T14:58:35.777Z,1.20
2018-05-04T15:01:04.418Z,1.20
2018-05-04T15:03:33.802Z,1.10
2018-05-04T15:06:02.413Z,1.20
2018-05-04T15:08:31.679Z,1.10
2018-05-04T15:11:00.185Z,1.20
2018-05-04T15:13:28.800Z,1.20
2018-05-04T15:15:57.351Z,1.30
2018-05-04T15:18:25.838Z,1.20
2018-05-04T15:20:55.129Z,1.20
2018-05-04T15:23:23.637Z,1.30
2018-05-04T15:25:52.263Z,1.30
2018-05-04T15:28:20.800Z,1.27
2018-05-04T15:30:50.091Z,1.10
2018-05-04T15:33:18.592Z,1.30
2018-05-04T15:35:47.133Z,1.47
2018-05-04T15:38:15.626Z,1.50
2018-05-04T15:40:44.194Z,1.20
2018-05-04T15:43:12.688Z,1.20
2018-05-04T15:45:41.309Z,1.30
2018-05-04T15:48:15.694Z,1.33
2018-05-04T15:50:49.913Z,1.20
2018-05-04T15:53:18.426Z,1.20
2018-05-04T15:55:46.941Z,1.40
2018-05-04T15:58:15.575Z,1.20
2018-05-04T16:00:44.162Z,1.50
2018-05-04T16:03:12.685Z,1.37
2018-05-04T16:05:41.208Z,1.20
2018-05-04T16:08:09.775Z,1.20
2018-05-04T16:10:39.157Z,1.27
2018-05-04T16:13:07.784Z,1.30
2018-05-04T16:15:37.084Z,1.20
2018-05-04T16:18:06.486Z,1.30
2018-05-04T16:20:35.066Z,1.30
2018-05-04T16:23:04.349Z,1.40
2018-05-04T16:25:32.856Z,1.20
2018-05-04T16:28:02.150Z,1.23
2018-05-04T16:30:31.445Z,1.23
2018-05-04T16:33:00.761Z,1.33
2018-05-04T16:35:29.256Z,1.30
2018-05-04T16:37:57.782Z,1.20
2018-05-04T16:40:26.272Z,1.50
2018-05-04T16:42:54.815Z,1.50
2018-05-04T16:45:23.379Z,1.60
2018-05-04T16:47:57.532Z,1.50
2018-05-04T16:50:26.061Z,1.60
2018-05-04T16:52:55.322Z,1.30
2018-05-04T16:55:23.938Z,1.57
2018-05-04T16:57:52.465Z,1.50
2018-05-04T17:00:21.113Z,1.30
2018-05-04T17:02:49.625Z,1.63
2018-05-04T17:05:18.237Z,1.57
2018-05-04T17:07:46.762Z,1.50
2018-05-04T17:10:15.261Z,1.70
2018-05-04T17:12:43.920Z,1.40
2018-05-04T17:15:12.591Z,1.40
2018-05-04T17:17:41.140Z,1.50
2018-05-04T17:20:09.683Z,1.40
2018-05-04T17:22:39.127Z,1.50
2018-05-04T17:25:07.858Z,1.40
2018-05-04T17:27:36.391Z,1.40
2018-05-04T17:30:05.008Z,1.60
2018-05-04T17:32:33.603Z,1.80
2018-05-04T17:35:02.107Z,1.40
2018-05-04T17:37:30.693Z,1.73
2018-05-04T17:39:59.247Z,4.30
2018-05-04T17:42:27.773Z,3.07
2018-05-04T17:44:56.315Z,3.23
2018-05-04T17:47:24.824Z,3.33
2018-05-04T17:49:53.347Z,2.83
2018-05-04T17:52:22.067Z,2.50
2018-05-04T17:54:50.564Z,1.60
2018-05-04T17:57:19.321Z,3.30
2018-05-04T17:59:48.113Z,17.97
2018-05-04T18:02:16.634Z,16.30
2018-05-04T18:04:45.157Z,5.57
2018-05-04T18:07:15.154Z,7.90
2018-05-04T18:09:43.690Z,3.20
2018-05-04T18:12:12.197Z,4.53
2018-05-04T18:14:41.658Z,1.60
2018-05-04T18:17:10.945Z,1.60
2018-05-04T18:19:39.567Z,1.23
2018-05-04T18:22:08.081Z,1.50
2018-05-04T18:24:36.571Z,1.40
2018-05-04T18:27:05.199Z,1.30
2018-05-04T18:29:33.786Z,1.60
2018-05-04T18:32:02.309Z,1.57
2018-05-04T18:34:30.812Z,1.43
2018-05-04T18:37:01.481Z,1.50
2018-05-04T18:39:29.995Z,1.60
2018-05-04T18:41:58.520Z,1.80
2018-05-04T18:44:27.928Z,1.60
2018-05-04T18:46:56.433Z,1.90
2018-05-04T18:49:24.980Z,1.60
2018-05-04T18:51:53.505Z,1.50
2018-05-04T18:54:22.850Z,1.67
2018-05-04T18:56:51.469Z,2.00
2018-05-04T18:59:20.147Z,1.90
2018-05-04T19:01:48.640Z,1.77
2018-05-04T19:04:17.347Z,1.70
2018-05-04T19:06:46.628Z,2.10
2018-05-04T19:09:15.128Z,2.00
2018-05-04T19:11:44.534Z,1.80
2018-05-04T19:14:13.034Z,1.70
2018-05-04T19:16:41.623Z,1.80
2018-05-04T19:19:10.260Z,1.90
2018-05-04T19:21:39.712Z,2.00
2018-05-04T19:24:08.452Z,1.90
2018-05-04T19:26:36.988Z,2.00
2018-05-04T19:29:05.625Z,2.20
2018-05-04T19:31:34.233Z,1.90
2018-05-04T19:34:02.919Z,2.13
2018-05-04T19:36:31.514Z,2.00
2018-05-04T19:39:00.230Z,2.00
2018-05-04T19:41:28.770Z,1.87
2018-05-04T19:43:57.412Z,1.93
2018-05-04T19:46:29.420Z,1.90
2018-05-04T19:48:58.322Z,2.23
2018-05-04T19:51:27.197Z,2.20
2018-05-04T19:53:55.735Z,1.90
2018-05-04T19:56:24.314Z,1.90
2018-05-04T19:58:52.802Z,2.10
2018-05-04T20:01:21.391Z,2.30
2018-05-04T20:03:49.924Z,2.17
2018-05-04T20:06:18.433Z,1.97
2018-05-04T20:08:46.917Z,2.10
2018-05-04T20:11:15.457Z,2.00
2018-05-04T20:13:44.000Z,1.90
2018-05-04T20:16:12.604Z,2.10
2018-05-04T20:18:41.146Z,2.30
2018-05-04T20:21:10.574Z,2.07
2018-05-04T20:23:39.066Z,2.00
2018-05-04T20:26:07.579Z,2.20
2018-05-04T20:28:36.214Z,2.00
2018-05-04T20:31:04.828Z,2.80
2018-05-04T20:33:33.366Z,2.20
2018-05-04T20:36:02.308Z,1.93
2018-05-04T20:38:30.848Z,2.00
2018-05-04T20:41:00.213Z,2.00
2018-05-04T20:43:28.862Z,2.20
2018-05-04T20:45:58.139Z,1.90
2018-05-04T20:48:26.714Z,2.20
2018-05-04T20:50:55.243Z,2.27
2018-05-04T20:53:23.739Z,2.10
2018-05-04T20:55:52.291Z,2.20
2018-05-04T20:58:21.572Z,2.33
2018-05-04T21:00:50.079Z,2.43
2018-05-04T21:03:18.652Z,2.50
2018-05-04T21:05:47.297Z,2.47
2018-05-04T21:08:16.275Z,2.93
2018-05-04T21:10:44.847Z,2.60
2018-05-04T21:13:13.429Z,2.13
2018-05-04T21:15:42.098Z,2.20
2018-05-04T21:18:10.581Z,2.10
2018-05-04T21:20:39.112Z,2.27
2018-05-04T21:23:07.626Z,2.83
2018-05-04T21:25:36.120Z,2.10
2018-05-04T21:28:04.762Z,2.47
2018-05-04T21:30:33.262Z,2.40
2018-05-04T21:33:01.785Z,2.30
2018-05-04T21:35:30.290Z,2.73
2018-05-04T21:37:58.878Z,2.37
2018-05-04T21:40:27.393Z,2.30
2018-05-04T21:42:56.069Z,2.30
2018-05-04T21:45:24.574Z,2.53
2018-05-04T21:47:53.105Z,2.30
2018-05-04T21:50:21.623Z,2.47
2018-05-04T21:52:50.151Z,2.60
2018-05-04T21:55:18.688Z,2.17
2018-05-04T21:57:47.216Z,2.70
2018-05-04T22:00:15.782Z,2.73
2018-05-04T22:02:45.090Z,2.50
2018-05-04T22:05:13.585Z,2.60
2018-05-04T22:07:42.085Z,2.50
2018-05-04T22:10:10.608Z,2.67
2018-05-04T22:12:39.101Z,2.57
2018-05-04T22:15:08.467Z,2.50
2018-05-04T22:17:37.024Z,2.83
2018-05-04T22:20:06.338Z,2.57
2018-05-04T22:22:34.878Z,2.73
2018-05-04T22:25:03.411Z,2.60
2018-05-04T22:27:31.947Z,2.50
2018-05-04T22:30:00.432Z,2.73
2018-05-04T22:32:28.962Z,2.87
2018-05-04T22:34:57.639Z,3.10
2018-05-04T22:37:26.166Z,3.10
2018-05-04T22:39:54.681Z,2.90
2018-05-04T22:42:23.229Z,2.77
2018-05-04T22:44:51.765Z,2.80
2018-05-04T22:47:20.255Z,2.87
2018-05-04T22:49:48.769Z,3.20
2018-05-04T22:52:17.276Z,2.80
2018-05-04T22:54:45.795Z,3.27
2018-05-04T22:57:14.306Z,3.30
2018-05-04T22:59:42.821Z,3.20
2018-05-04T23:02:11.314Z,3.17
2018-05-04T23:04:39.927Z,3.10
2018-05-04T23:07:08.456Z,3.30
2018-05-04T23:09:36.939Z,2.97
2018-05-04T23:12:05.446Z,3.37
2018-05-04T23:14:33.994Z,3.20
2018-05-04T23:17:02.492Z,3.30
2018-05-04T23:19:31.030Z,3.17
2018-05-04T23:21:59.506Z,3.20
2018-05-04T23:24:28.001Z,3.60
2018-05-04T23:26:56.485Z,3.20
2018-05-04T23:29:25.096Z,3.63
2018-05-04T23:31:53.619Z,3.27
2018-05-04T23:34:22.203Z,3.43
2018-05-04T23:36:50.722Z,3.23
2018-05-04T23:39:20.081Z,3.17
2018-05-04T23:41:48.555Z,4.33
2018-05-04T23:44:17.071Z,3.33
2018-05-04T23:46:45.612Z,3.03
2018-05-04T23:49:14.171Z,3.27
2018-05-04T23:51:42.657Z,3.00
2018-05-04T23:54:11.213Z,3.03
2018-05-04T23:56:39.764Z,3.23
2018-05-04T23:59:08.309Z,3.00
